• Join FlightAware (Why Join?)
  • Login
  • US Flag 
12:55PM EDT


 

Airport Tracker/Info


-or-


 

Live Flight TrackerFlight Track Log ✈ AAY875 ✈ 17-Apr-2014 ✈ KBGR - KPIE

Flight Track Log - Related Links

Times and Time Zones

All times are in EDT time to prevent confusion due to time zone crossing. See the AAY875 flight status page for this flight to view local times or setup timezone preferences in your user account.

Time Position Orientation Groundspeed Altitude Reporting Facility
EDT Latitude Longitude Course Direction KTS MPH feet Rate Location/Type
05:05PM 44.8397 -68.9164 227° Southwest 225 259 2,700  Level Boston Center
05:06PM 44.7806 -69.0047 227° Southwest 264 304 6,300 3,180 Climbing Boston Center
05:07PM 44.7264 -69.0825 226° Southwest 270 311 9,300 2,400 Climbing Boston Center
05:08PM 44.6714 -69.1619 226° Southwest 275 316 11,300 1,560 Climbing Boston Center
05:09PM 44.5992 -69.2536 222° Southwest 334 384 12,500 1,560 Climbing Boston Center
05:10PM 44.5269 -69.3606 227° Southwest 366 421 14,600 2,160 Climbing Boston Center
05:11PM 44.4539 -69.4711 227° Southwest 378 435 17,000 1,560 Climbing Boston Center
05:12PM 44.3742 -69.5772 224° Southwest 388 447 17,800 1,380 Climbing Boston Center
05:13PM 44.2928 -69.6858 224° Southwest 399 459 19,900 1,680 Climbing Boston Center
05:14PM 44.2164 -69.7997 227° Southwest 399 459 21,300 1,260 Climbing Boston Center
05:15PM 44.1319 -69.9111 223° Southwest 413 475 22,500 1,560 Climbing Boston Center
05:17PM 44.0511 -70.0267 226° Southwest 415 478 24,600 1,680 Climbing Boston Center
05:18PM 43.9975 -70.1650 242° Southwest 405 466 26,000 1,380 Climbing Boston Center
05:19PM 43.9469 -70.3022 243° Southwest 403 464 27,500 1,260 Climbing Boston Center
05:20PM 43.8981 -70.4375 243° Southwest 396 456 28,700 1,200 Climbing Boston Center
05:21PM 43.8133 -70.5758 230° Southwest 393 452 30,000 600 Climbing Boston Center
05:22PM 43.7369 -70.6803 225° Southwest 389 448 30,000  Level Boston Center
05:23PM 43.6581 -70.7847 224° Southwest 389 448 30,000  Level Boston Center
05:24PM 43.5806 -70.8967 226° Southwest 396 456 30,000  Level Boston Center
05:25PM 43.5069 -71.0033 226° Southwest 395 455 30,000  Level Boston Center
05:26PM 43.4317 -71.1089 226° Southwest 392 451 30,000  Level Boston Center
05:27PM 43.3564 -71.2128 225° Southwest 387 445 30,000  Level Boston Center
05:28PM 43.2789 -71.3222 226° Southwest 390 449 30,000  Level Boston Center
05:29PM 43.2061 -71.4261 226° Southwest 389 448 30,000  Level Boston Center
05:30PM 43.1153 -71.5472 224° Southwest 390 449 30,000  Level Boston Center
05:31PM 43.0361 -71.6558 225° Southwest 392 451 30,000  Level Boston Center
05:32PM 42.9594 -71.7611 225° Southwest 393 452 30,000  Level Boston Center
05:33PM 42.8831 -71.8667 225° Southwest 392 451 30,000  Level Boston Center
05:34PM 42.8067 -71.9717 225° Southwest 391 450 30,000  Level Boston Center
05:35PM 42.7275 -72.0753 224° Southwest 393 452 30,000  Level Boston Center
05:36PM 42.6494 -72.1806 225° Southwest 394 453 30,000  Level Boston Center
05:37PM 42.5678 -72.2900 225° Southwest 394 453 30,000  Level Boston Center
05:38PM 42.4900 -72.3939 225° Southwest 395 455 30,000  Level Boston Center
05:39PM 42.4114 -72.4981 224° Southwest 396 456 30,000  Level Boston Center
05:40PM 42.3181 -72.6214 224° Southwest 397 457 30,000  Level Boston Center
05:41PM 42.2381 -72.7269 224° Southwest 397 457 30,000  Level Boston Center
05:42PM 42.1586 -72.8317 224° Southwest 397 457 30,000  Level Boston Center
05:43PM 42.0800 -72.9364 225° Southwest 396 456 30,000  Level Boston Center
05:44PM 41.9997 -73.0406 224° Southwest 396 456 30,000  Level Boston Center
05:45PM 41.9192 -73.1442 224° Southwest 397 457 30,000  Level Boston Center
05:46PM 41.8400 -73.2503 225° Southwest 399 459 30,000  Level Boston Center
05:47PM 41.7600 -73.3528 224° Southwest 400 460 30,000  Level Boston Center
05:48PM 41.6789 -73.4553 223° Southwest 400 460 30,000  Level Boston Center
05:49PM 41.5975 -73.5581 223° Southwest 401 461 30,000  Level Boston Center
05:50PM 41.5064 -73.6772 224° Southwest 401 461 30,000  Level Boston Center
05:51PM 41.4264 -73.7797 224° Southwest 401 461 30,000  Level Boston Center
05:52PM 41.3386 -73.8869 223° Southwest 401 461 30,000  Level Boston Center
05:54PM 41.2464 -74.0106 225° Southwest 406 467 30,000  Level New York Center
05:55PM 41.1644 -74.1114 223° Southwest 406 467 30,000  Level New York Center
05:56PM 41.0908 -74.2014 223° Southwest 406 467 30,000  Level New York Center
05:57PM 41.0067 -74.3017 222° Southwest 406 467 30,000  Level New York Center
05:58PM 40.9267 -74.4044 224° Southwest 406 467 30,000  Level New York Center
05:59PM 40.8442 -74.5072 223° Southwest 406 467 30,000  Level New York Center
06:00PM 40.7619 -74.6067 223° Southwest 406 467 30,000  Level New York Center
06:01PM 40.6814 -74.7089 224° Southwest 406 467 30,000  Level New York Center
06:02PM 40.5986 -74.8133 224° Southwest 406 467 30,000  Level New York Center
06:03PM 40.5139 -74.9150 222° Southwest 406 467 30,000  Level New York Center
06:04PM 40.4311 -75.0164 223° Southwest 406 467 30,000  Level New York Center
06:05PM 40.3503 -75.1147 223° Southwest 406 467 30,000  Level New York Center
06:06PM 40.2653 -75.2156 222° Southwest 406 467 30,000  Level New York Center
06:07PM 40.1822 -75.3189 224° Southwest 406 467 30,000  Level New York Center
06:08PM 40.1050 -75.4250 226° Southwest 406 467 30,000 180 Level New York Center
06:09PM 40.0542 -75.5519 242° Southwest 406 467 30,400 660 Climbing New York Center
06:10PM 39.9947 -75.6806 239° Southwest 411 473 31,400 780 Climbing New York Center
06:11PM 39.9211 -75.7919 229° Southwest 416 479 32,000 300 Climbing New York Center
06:12PM 39.8481 -75.8947 227° Southwest 410 472 32,000  Level New York Center
06:13PM 39.7611 -76.0181 227° Southwest 410 472 32,000  Level New York Center
06:14PM 39.6414 -76.1950 229° Southwest 415 478 32,000  Level Washington Center
06:15PM 39.5636 -76.3022 227° Southwest 410 472 32,000  Level Washington Center
06:16PM 39.4878 -76.4117 228° Southwest 410 472 32,000  Level Washington Center
06:17PM 39.4100 -76.5183 227° Southwest 410 472 32,000  Level Washington Center
06:18PM 39.3383 -76.6272 230° Southwest 417 480 32,000  Level Washington Center
06:19PM 39.2622 -76.7336 227° Southwest 410 472 32,000  Level Washington Center
06:20PM 39.2011 -76.8208 228° Southwest 410 472 32,000  Level Washington Center
06:21PM 39.1078 -76.9506 227° Southwest 410 472 32,000  Level Washington Center
06:22PM 39.0464 -77.0350 227° Southwest 410 472 32,000  Level Washington Center
06:23PM 38.9536 -77.1372 221° Southwest 405 466 32,000  Level Washington Center
06:24PM 38.8667 -77.2314 220° Southwest 405 466 32,000  Level Washington Center
06:25PM 38.7800 -77.3253 220° Southwest 410 472 32,000  Level Washington Center
06:26PM 38.6953 -77.4189 221° Southwest 410 472 32,000  Level Washington Center
06:27PM 38.6103 -77.5153 222° Southwest 410 472 32,000  Level Washington Center
06:29PM 38.4342 -77.7017 220° Southwest 410 472 32,000  Level Washington Center
06:30PM 38.3492 -77.7944 221° Southwest 410 472 32,000  Level Washington Center
06:31PM 38.2661 -77.8872 221° Southwest 410 472 32,000  Level Washington Center
06:32PM 38.1767 -77.9794 219° Southwest 410 472 32,000  Level Washington Center
06:33PM 38.0914 -78.0717 220° Southwest 410 472 32,000  Level Washington Center
06:34PM 37.9975 -78.1714 220° Southwest 410 472 32,000  Level Washington Center
06:35PM 37.9208 -78.2478 218° Southwest 405 466 32,000  Level Washington Center
06:36PM 37.8311 -78.3342 217° Southwest 411 473 32,000  Level Washington Center
06:37PM 37.7269 -78.4275 215° Southwest 416 479 32,000  Level Washington Center
06:38PM 37.6372 -78.5133 217° Southwest 416 479 32,000  Level Washington Center
06:39PM 37.5475 -78.5989 217° Southwest 416 479 32,000  Level Washington Center
06:40PM 37.4578 -78.6842 217° Southwest 416 479 32,000  Level Washington Center
06:41PM 37.3678 -78.7669 216° Southwest 416 479 32,000  Level Washington Center
06:43PM 37.1944 -78.9267 216° Southwest 416 479 32,000  Level Washington Center
06:44PM 37.1025 -79.0111 216° Southwest 416 479 32,000  Level Washington Center
06:45PM 37.0103 -79.0981 217° Southwest 416 479 32,000  Level Washington Center
06:46PM 36.9203 -79.1797 216° Southwest 411 473 32,000  Level Washington Center
06:47PM 36.8172 -79.2708 215° Southwest 416 479 32,000  Level Washington Center
06:48PM 36.7269 -79.3600 218° Southwest 416 479 32,000  Level Washington Center
06:49PM 36.6347 -79.4383 214° Southwest 416 479 32,000  Level Washington Center
06:52PM 36.3486 -79.6978 216° Southwest 412 474 32,000  Level Atlanta Center
06:53PM 36.2575 -79.7800 216° Southwest 412 474 32,000  Level Atlanta Center
06:54PM 36.1767 -79.8536 216° Southwest 417 480 32,000  Level Atlanta Center
06:55PM 36.0878 -79.9381 218° Southwest 417 480 32,000  Level Atlanta Center
06:56PM 35.9856 -80.0022 207° Southwest 417 480 32,000  Level Atlanta Center
06:57PM 35.8811 -80.0586 204° Southwest 412 474 32,000  Level Atlanta Center
06:58PM 35.7619 -80.1131 200° South 412 474 32,000  Level Atlanta Center
06:59PM 35.6553 -80.1692 203° Southwest 412 474 32,000  Level Atlanta Center
07:00PM 35.5608 -80.2172 202° Southwest 412 474 32,000  Level Atlanta Center
07:01PM 35.4561 -80.2756 204° Southwest 417 480 32,000  Level Atlanta Center
07:02PM 35.3469 -80.3264 201° Southwest 412 474 32,000  Level Atlanta Center
07:03PM 35.2381 -80.3769 201° Southwest 412 474 32,000  Level Atlanta Center
07:04PM 35.1311 -80.4325 203° Southwest 412 474 32,000  Level Atlanta Center
07:06PM 34.9800 -80.5111 203° Southwest 445 512 32,000  Level Jacksonville Center
07:07PM 34.8725 -80.5647 202° Southwest 433 498 32,000  Level Jacksonville Center
07:08PM 34.7547 -80.6233 202° Southwest 423 487 32,000  Level Jacksonville Center
07:09PM 34.6472 -80.6717 200° South 423 487 32,000  Level Jacksonville Center
07:10PM 34.5439 -80.7222 202° Southwest 430 495 32,000  Level Jacksonville Center
07:11PM 34.4383 -80.7728 202° Southwest 425 489 32,000  Level Jacksonville Center
07:12PM 34.3286 -80.8283 203° Southwest 431 496 32,000  Level Jacksonville Center
07:13PM 34.2086 -80.8889 203° Southwest 431 496 32,000  Level Jacksonville Center
07:14PM 34.0967 -80.9417 201° Southwest 431 496 32,000  Level Jacksonville Center
07:15PM 33.9869 -80.9942 202° Southwest 431 496 32,000  Level Jacksonville Center
07:16PM 33.8772 -81.0464 202° Southwest 431 496 32,000  Level Jacksonville Center
07:17PM 33.7672 -81.1014 203° Southwest 431 496 32,000  Level Jacksonville Center
07:18PM 33.6556 -81.1583 203° Southwest 431 496 32,000  Level Jacksonville Center
07:19PM 33.5456 -81.2131 203° Southwest 431 496 32,000  Level Jacksonville Center
07:20PM 33.4378 -81.2647 202° Southwest 431 496 32,000  Level Jacksonville Center
07:21PM 33.3450 -81.3486 217° Southwest 431 496 32,000 -480 Level Jacksonville Center
07:22PM 33.2667 -81.4442 226° Southwest 414 476 31,100 -1,020 Descending Jacksonville Center
07:23PM 33.1886 -81.5447 227° Southwest 414 476 30,000 -1,080 Descending Jacksonville Center
07:24PM 33.0828 -81.6033 205° Southwest 414 476 29,000 -1,020 Descending Jacksonville Center
07:25PM 32.9556 -81.6128 184° South 424 488 28,000 -540 Descending Jacksonville Center
07:26PM 32.8408 -81.6217 184° South 443 510 28,000  Level Jacksonville Center
07:27PM 32.7219 -81.6481 191° South 450 518 28,000  Level Jacksonville Center
07:28PM 32.6053 -81.6767 192° South 437 503 28,000  Level Jacksonville Center
07:29PM 32.4742 -81.7131 193° South 432 497 28,000  Level Jacksonville Center
07:30PM 32.3681 -81.7367 191° South 432 497 28,000 -180 Level Jacksonville Center
07:31PM 32.2367 -81.7628 190° South 437 503 27,700 -600 Descending Jacksonville Center
07:32PM 32.1219 -81.7886 191° South 431 496 26,900 -780 Descending Jacksonville Center
07:33PM 32.0158 -81.8169 193° South 431 496 26,200 -480 Descending Jacksonville Center
07:34PM 31.8908 -81.8453 191° South 426 490 26,000 -120 Descending Jacksonville Center
07:35PM 31.7719 -81.8711 190° South 433 498 26,000  Level Jacksonville Center
07:36PM 31.6658 -81.8942 190° South 433 498 26,000  Level Jacksonville Center
07:37PM 31.5364 -81.9225 191° South 433 498 26,000  Level Jacksonville Center
07:38PM 31.4303 -81.9478 191° South 428 493 26,000  Level Jacksonville Center
07:39PM 31.2989 -81.9833 193° South 438 504 26,000  Level Jacksonville Center
07:40PM 31.1822 -82.0086 191° South 432 497 26,000  Level Jacksonville Center
07:41PM 31.0633 -82.0339 190° South 432 497 26,000  Level Jacksonville Center
07:42PM 30.9550 -82.0592 191° South 432 497 26,000  Level Jacksonville Center
07:43PM 30.8381 -82.0869 192° South 432 497 26,000  Level Jacksonville Center
07:44PM 30.7214 -82.1097 190° South 432 497 26,000  Level Jacksonville Center
07:45PM 30.6067 -82.1347 191° South 432 497 26,000  Level Jacksonville Center
07:46PM 30.4753 -82.1622 190° South 432 497 26,000  Level Jacksonville Center
07:47PM 30.3564 -82.1872 190° South 438 504 26,000  Level Jacksonville Center
07:48PM 30.2375 -82.2144 191° South 438 504 26,000  Level Jacksonville Center
07:49PM 30.1186 -82.2419 191° South 434 499 26,000  Level Jacksonville Center
07:50PM 30.0103 -82.2664 191° South 439 505 26,000  Level Jacksonville Center
07:51PM 29.8914 -82.2961 192° South 439 505 26,000  Level Jacksonville Center
07:52PM 29.7725 -82.3206 190° South 444 511 26,000  Level Jacksonville Center
07:53PM 29.6411 -82.3453 189° South 444 511 26,000  Level Jacksonville Center
07:54PM 29.5181 -82.3508 182° South 449 517 26,000 -600 Level Jacksonville Center
07:55PM 29.3947 -82.3394 175° South 444 511 24,900 -1,800 Descending Jacksonville Center
07:56PM 29.2736 -82.3189 172° South 444 511 22,400 -2,580 Descending Jacksonville Center
07:57PM 29.1586 -82.3053 174° South 439 505 19,800 -2,460 Descending Jacksonville Center
07:58PM 29.0458 -82.2964 176° South 420 483 17,500 -2,280 Descending Jacksonville Center
07:59PM 28.9458 -82.2875 176° South 408 470 15,300 -1,680 Descending Jacksonville Center
08:00PM 28.7667 -82.2667 174° South 342 394 13,000 -1,260 Descending Tampa TRACON
08:01PM 28.6833 -82.2500 170° South 335 386 12,200 -1,080 Descending Tampa TRACON
08:02PM 28.6000 -82.2667 190° South 335 386 11,200 -960 Descending Tampa TRACON
08:03PM 28.5500 -82.3500 236° Southwest 337 388 10,400 -660 Descending Tampa TRACON
08:04PM 28.5167 -82.4500 249° West 334 384 10,000 -240 Descending Tampa TRACON
08:05PM 28.4833 -82.5333 246° West 328 377 10,000  Level Tampa TRACON
08:06PM 28.4333 -82.6333 240° Southwest 329 379 10,000  Level Tampa TRACON
08:07PM 28.4000 -82.7167 246° West 330 380 10,000 -240 Level Tampa TRACON
08:08PM 28.3333 -82.7667 213° Southwest 294 338 9,600 -960 Descending Tampa TRACON
08:09PM 28.2500 -82.7667 180° South 275 316 8,000 -1,620 Descending Tampa TRACON
08:10PM 28.1667 -82.7833 190° South 273 314 6,300 -1,620 Descending Tampa TRACON
08:11PM 28.0833 -82.7833 180° South 259 298 4,700 -1,440 Descending Tampa TRACON
08:12PM 28.0167 -82.7833 180° South 245 282 3,300 -1,080 Descending Tampa TRACON
08:13PM 27.9500 -82.7500 156° South 222 255 2,600 -480 Descending Tampa TRACON
08:14PM 27.9000 -82.7500 180° South 195 224 2,300 -480 Descending Tampa TRACON
08:15PM 27.8500 -82.7333 164° South 186 214 1,600 -600 Descending Tampa TRACON
08:16PM 27.8500 -82.6833 90° East 129 148 1,100 -540 Descending Tampa TRACON
08:18PM 27.9000 -82.6833 310° West  Level FlightAware Approximate
08:25PM 27.9100 -82.6875 310° West  Level Estimated
08:26PM 27.9100 -82.6875 310° West  Level Estimated
08:27PM 27.9100 -82.6875 310° West  Level Estimated